<?xml version='1.0' encoding='UTF-8'?><gpx version="1.1" creator="JPX - https://github.com/jenetics/jpx" xmlns="http://www.topografix.com/GPX/1/1"><trk><trkseg><trkpt lat="44.1849667" lon="12.1149169"><ele>29.000000000000004</ele><time>2026-04-26T18:09:54.231Z</time></trkpt><trkpt lat="44.1849218" lon="12.114983"><ele>29.0</ele><time>2026-04-26T18:10:04.494Z</time></trkpt><trkpt lat="44.1848666" lon="12.1150624"><ele>29.000000000000004</ele><time>2026-04-26T18:10:08.176Z</time></trkpt><trkpt lat="44.1848497" lon="12.1151553"><ele>29.000000000000004</ele><time>2026-04-26T18:10:14.351Z</time></trkpt><trkpt lat="44.1848266" lon="12.1152413"><ele>29.0</ele><time>2026-04-26T18:10:20.346Z</time></trkpt><trkpt lat="44.1847744" lon="12.1153035"><ele>29.000000000000004</ele><time>2026-04-26T18:10:28.373Z</time></trkpt><trkpt lat="44.1847064" lon="12.1152854"><ele>29.000000000000004</ele><time>2026-04-26T18:10:33.352Z</time></trkpt><trkpt lat="44.1846497" lon="12.1153418"><ele>29.000000000000004</ele><time>2026-04-26T18:10:39.346Z</time></trkpt><trkpt lat="44.1846159" lon="12.1154185"><ele>29.0</ele><time>2026-04-26T18:10:47.374Z</time></trkpt><trkpt lat="44.1845864" lon="12.1154995"><ele>29.000000000000004</ele><time>2026-04-26T18:10:53.368Z</time></trkpt><trkpt lat="44.1845541" lon="12.115591"><ele>29.000000000000004</ele><time>2026-04-26T18:10:58.254Z</time></trkpt><trkpt lat="44.1845176" lon="12.1156714"><ele>29.0</ele><time>2026-04-26T18:11:03.327Z</time></trkpt><trkpt lat="44.1844873" lon="12.1157514"><ele>29.000000000000004</ele><time>2026-04-26T18:11:08.306Z</time></trkpt><trkpt lat="44.1844538" lon="12.1158376"><ele>29.000000000000004</ele><time>2026-04-26T18:11:13.386Z</time></trkpt><trkpt lat="44.1844079" lon="12.1159232"><ele>29.142857142857146</ele><time>2026-04-26T18:11:20.397Z</time></trkpt><trkpt lat="44.1843667" lon="12.1159975"><ele>29.285714285714285</ele><time>2026-04-26T18:11:26.412Z</time></trkpt><trkpt lat="44.1843371" lon="12.1160765"><ele>29.42857142857143</ele><time>2026-04-26T18:11:33.403Z</time></trkpt><trkpt lat="44.1843291" lon="12.1161666"><ele>29.571428571428573</ele><time>2026-04-26T18:11:39.397Z</time></trkpt><trkpt lat="44.1842967" lon="12.1162659"><ele>29.714285714285715</ele><time>2026-04-26T18:11:45.393Z</time></trkpt><trkpt lat="44.1842761" lon="12.1163565"><ele>29.857142857142858</ele><time>2026-04-26T18:11:50.371Z</time></trkpt><trkpt lat="44.1843165" lon="12.1164273"><ele>30.0</ele><time>2026-04-26T18:11:56.366Z</time></trkpt><trkpt lat="44.1843674" lon="12.1164936"><ele>30.0</ele><time>2026-04-26T18:12:02.296Z</time></trkpt><trkpt lat="44.1844062" lon="12.1165795"><ele>30.0</ele><time>2026-04-26T18:12:07.341Z</time></trkpt><trkpt lat="44.1844375" lon="12.1166612"><ele>30.0</ele><time>2026-04-26T18:12:13.336Z</time></trkpt><trkpt lat="44.1844365" lon="12.1167512"><ele>30.0</ele><time>2026-04-26T18:12:20.279Z</time></trkpt><trkpt lat="44.1843942" lon="12.1168164"><ele>30.0</ele><time>2026-04-26T18:12:27.378Z</time></trkpt><trkpt lat="44.1843756" lon="12.1169029"><ele>30.0</ele><time>2026-04-26T18:12:30.322Z</time></trkpt><trkpt lat="44.1843423" lon="12.1169921"><ele>30.0</ele><time>2026-04-26T18:12:35.385Z</time></trkpt><trkpt lat="44.1843093" lon="12.1170719"><ele>30.0</ele><time>2026-04-26T18:12:41.38Z</time></trkpt><trkpt lat="44.1842782" lon="12.1171529"><ele>30.0</ele><time>2026-04-26T18:12:46.359Z</time></trkpt><trkpt lat="44.1842401" lon="12.1172418"><ele>30.0</ele><time>2026-04-26T18:12:53.325Z</time></trkpt><trkpt lat="44.1842157" lon="12.11733"><ele>30.0</ele><time>2026-04-26T18:12:59.323Z</time></trkpt><trkpt lat="44.1841877" lon="12.117414"><ele>30.0</ele><time>2026-04-26T18:13:05.257Z</time></trkpt><trkpt lat="44.1841702" lon="12.1175049"><ele>30.0</ele><time>2026-04-26T18:13:11.354Z</time></trkpt><trkpt lat="44.184182" lon="12.1176025"><ele>30.0</ele><time>2026-04-26T18:13:18.365Z</time></trkpt><trkpt lat="44.1842392" lon="12.1176447"><ele>29.571428571428573</ele><time>2026-04-26T18:13:22.327Z</time></trkpt><trkpt lat="44.1843034" lon="12.1176898"><ele>29.142857142857142</ele><time>2026-04-26T18:13:26.391Z</time></trkpt><trkpt lat="44.1843584" lon="12.117741"><ele>28.714285714285715</ele><time>2026-04-26T18:13:31.321Z</time></trkpt><trkpt lat="44.1844134" lon="12.1177975"><ele>28.285714285714285</ele><time>2026-04-26T18:13:36.35Z</time></trkpt><trkpt lat="44.1843775" lon="12.1178857"><ele>27.857142857142854</ele><time>2026-04-26T18:13:45.393Z</time></trkpt><trkpt lat="44.1843451" lon="12.1179773"><ele>27.428571428571427</ele><time>2026-04-26T18:13:52.306Z</time></trkpt><trkpt lat="44.1843023" lon="12.1180686"><ele>27.0</ele><time>2026-04-26T18:13:57.382Z</time></trkpt><trkpt lat="44.1842633" lon="12.1181522"><ele>27.0</ele><time>2026-04-26T18:14:01.346Z</time></trkpt><trkpt lat="44.1842331" lon="12.1182319"><ele>27.0</ele><time>2026-04-26T18:14:07.34Z</time></trkpt><trkpt lat="44.1842362" lon="12.1183287"><ele>27.0</ele><time>2026-04-26T18:14:12.319Z</time></trkpt><trkpt lat="44.1842908" lon="12.1183933"><ele>27.0</ele><time>2026-04-26T18:14:16.383Z</time></trkpt><trkpt lat="44.184349" lon="12.1184446"><ele>27.0</ele><time>2026-04-26T18:14:20.346Z</time></trkpt><trkpt lat="44.1844215" lon="12.1184948"><ele>27.0</ele><time>2026-04-26T18:14:25.325Z</time></trkpt><trkpt lat="44.1844782" lon="12.1185472"><ele>27.0</ele><time>2026-04-26T18:14:31.321Z</time></trkpt><trkpt lat="44.1845258" lon="12.1186057"><ele>27.0</ele><time>2026-04-26T18:14:37.399Z</time></trkpt><trkpt lat="44.1845815" lon="12.1186498"><ele>27.0</ele><time>2026-04-26T18:14:42.339Z</time></trkpt><trkpt lat="44.1846379" lon="12.1186945"><ele>27.0</ele><time>2026-04-26T18:14:47.375Z</time></trkpt><trkpt lat="44.1846985" lon="12.1187442"><ele>27.0</ele><time>2026-04-26T18:14:52.353Z</time></trkpt><trkpt lat="44.1847509" lon="12.1187936"><ele>27.0</ele><time>2026-04-26T18:14:59.66Z</time></trkpt><trkpt lat="44.1848241" lon="12.1187764"><ele>27.0</ele><time>2026-04-26T18:15:08.376Z</time></trkpt><trkpt lat="44.1848246" lon="12.118886"><ele>27.0</ele><time>2026-04-26T18:15:14.323Z</time></trkpt><trkpt lat="44.1847984" lon="12.1189912"><ele>27.142857142857142</ele><time>2026-04-26T18:15:18.386Z</time></trkpt><trkpt lat="44.1847584" lon="12.1190812"><ele>27.285714285714285</ele><time>2026-04-26T18:15:22.349Z</time></trkpt><trkpt lat="44.1847189" lon="12.1191506"><ele>27.42857142857143</ele><time>2026-04-26T18:15:26.337Z</time></trkpt><trkpt lat="44.1846687" lon="12.1192251"><ele>27.57142857142857</ele><time>2026-04-26T18:15:32.307Z</time></trkpt><trkpt lat="44.1846514" lon="12.1193194"><ele>27.714285714285715</ele><time>2026-04-26T18:15:38.404Z</time></trkpt><trkpt lat="44.1846345" lon="12.119419"><ele>27.857142857142858</ele><time>2026-04-26T18:15:44.398Z</time></trkpt><trkpt lat="44.1846085" lon="12.1195017"><ele>28.0</ele><time>2026-04-26T18:15:49.359Z</time></trkpt><trkpt lat="44.1845704" lon="12.1195862"><ele>28.0</ele><time>2026-04-26T18:15:54.356Z</time></trkpt><trkpt lat="44.1845404" lon="12.1196731"><ele>28.0</ele><time>2026-04-26T18:16:00.352Z</time></trkpt><trkpt lat="44.1845076" lon="12.1197587"><ele>28.0</ele><time>2026-04-26T18:16:06.347Z</time></trkpt><trkpt lat="44.1844697" lon="12.1198352"><ele>28.0</ele><time>2026-04-26T18:16:11.326Z</time></trkpt><trkpt lat="44.1844354" lon="12.1199221"><ele>28.0</ele><time>2026-04-26T18:16:17.26Z</time></trkpt><trkpt lat="44.184415" lon="12.1200096"><ele>28.0</ele><time>2026-04-26T18:16:24.398Z</time></trkpt><trkpt lat="44.1843802" lon="12.1200912"><ele>28.0</ele><time>2026-04-26T18:16:30.325Z</time></trkpt><trkpt lat="44.1843412" lon="12.1201768"><ele>28.0</ele><time>2026-04-26T18:16:35.407Z</time></trkpt><trkpt lat="44.1843096" lon="12.1202603"><ele>28.0</ele><time>2026-04-26T18:16:40.385Z</time></trkpt><trkpt lat="44.184303" lon="12.1203579"><ele>28.0</ele><time>2026-04-26T18:16:46.38Z</time></trkpt><trkpt lat="44.1843539" lon="12.120416"><ele>28.0</ele><time>2026-04-26T18:16:51.36Z</time></trkpt><trkpt lat="44.1843756" lon="12.1205042"><ele>28.0</ele><time>2026-04-26T18:16:57.354Z</time></trkpt><trkpt lat="44.1843796" lon="12.1206034"><ele>28.0</ele><time>2026-04-26T18:17:03.35Z</time></trkpt><trkpt lat="44.1844003" lon="12.120699"><ele>28.0</ele><time>2026-04-26T18:17:09.345Z</time></trkpt><trkpt lat="44.1843769" lon="12.1207881"><ele>28.285714285714285</ele><time>2026-04-26T18:17:15.34Z</time></trkpt><trkpt lat="44.1843446" lon="12.120877"><ele>28.57142857142857</ele><time>2026-04-26T18:17:23.276Z</time></trkpt><trkpt lat="44.1843092" lon="12.1209668"><ele>28.857142857142858</ele><time>2026-04-26T18:17:29.362Z</time></trkpt><trkpt lat="44.1842714" lon="12.1210468"><ele>29.142857142857142</ele><time>2026-04-26T18:17:34.34Z</time></trkpt><trkpt lat="44.1842388" lon="12.1211226"><ele>29.428571428571427</ele><time>2026-04-26T18:17:39.319Z</time></trkpt><trkpt lat="44.1842018" lon="12.121215"><ele>29.714285714285715</ele><time>2026-04-26T18:17:45.314Z</time></trkpt><trkpt lat="44.1841717" lon="12.1212931"><ele>30.0</ele><time>2026-04-26T18:17:50.293Z</time></trkpt><trkpt lat="44.1841354" lon="12.1213804"><ele>30.0</ele><time>2026-04-26T18:17:56.39Z</time></trkpt><trkpt lat="44.1841048" lon="12.1214582"><ele>30.0</ele><time>2026-04-26T18:18:02.385Z</time></trkpt><trkpt lat="44.1840715" lon="12.1215448"><ele>30.0</ele><time>2026-04-26T18:18:10.309Z</time></trkpt><trkpt lat="44.1840441" lon="12.1216276"><ele>30.0</ele><time>2026-04-26T18:18:15.39Z</time></trkpt><trkpt lat="44.1839798" lon="12.121651"><ele>30.0</ele><time>2026-04-26T18:18:20.376Z</time></trkpt><trkpt lat="44.1839192" lon="12.121627"><ele>30.0</ele><time>2026-04-26T18:18:25.347Z</time></trkpt><trkpt lat="44.1838533" lon="12.1215941"><ele>30.0</ele><time>2026-04-26T18:18:31.343Z</time></trkpt><trkpt lat="44.1837905" lon="12.1215629"><ele>30.0</ele><time>2026-04-26T18:18:37.337Z</time></trkpt><trkpt lat="44.183719" lon="12.1215492"><ele>30.0</ele><time>2026-04-26T18:18:44.349Z</time></trkpt><trkpt lat="44.1836608" lon="12.1215063"><ele>30.0</ele><time>2026-04-26T18:18:49.398Z</time></trkpt><trkpt lat="44.1835979" lon="12.121527"><ele>30.0</ele><time>2026-04-26T18:18:56.338Z</time></trkpt><trkpt lat="44.183531" lon="12.121585"><ele>30.0</ele><time>2026-04-26T18:19:03.35Z</time></trkpt><trkpt lat="44.1835016" lon="12.1216846"><ele>30.0</ele><time>2026-04-26T18:19:08.329Z</time></trkpt><trkpt lat="44.1834712" lon="12.1217644"><ele>30.0</ele><time>2026-04-26T18:19:13.399Z</time></trkpt><trkpt lat="44.1834455" lon="12.1218537"><ele>30.142857142857146</ele><time>2026-04-26T18:19:18.416Z</time></trkpt><trkpt lat="44.1834122" lon="12.1219381"><ele>30.285714285714285</ele><time>2026-04-26T18:19:23.018Z</time></trkpt><trkpt lat="44.1833803" lon="12.1220193"><ele>30.42857142857143</ele><time>2026-04-26T18:19:28.346Z</time></trkpt><trkpt lat="44.1833527" lon="12.1221119"><ele>30.571428571428573</ele><time>2026-04-26T18:19:34.398Z</time></trkpt><trkpt lat="44.1833205" lon="12.1221921"><ele>30.714285714285715</ele><time>2026-04-26T18:19:40.257Z</time></trkpt><trkpt lat="44.183286" lon="12.1222832"><ele>30.857142857142858</ele><time>2026-04-26T18:19:46.33Z</time></trkpt><trkpt lat="44.1832621" lon="12.1223658"><ele>31.0</ele><time>2026-04-26T18:19:51.309Z</time></trkpt><trkpt lat="44.1832337" lon="12.1224486"><ele>31.142857142857146</ele><time>2026-04-26T18:19:57.679Z</time></trkpt><trkpt lat="44.1831985" lon="12.1225282"><ele>31.28571428571429</ele><time>2026-04-26T18:20:08.379Z</time></trkpt><trkpt lat="44.1831314" lon="12.12256"><ele>31.42857142857143</ele><time>2026-04-26T18:20:16.307Z</time></trkpt><trkpt lat="44.1831368" lon="12.1226553"><ele>31.57142857142857</ele><time>2026-04-26T18:20:23.316Z</time></trkpt><trkpt lat="44.1831893" lon="12.122717"><ele>31.71428571428571</ele><time>2026-04-26T18:20:30.278Z</time></trkpt><trkpt lat="44.1832504" lon="12.1227756"><ele>31.857142857142854</ele><time>2026-04-26T18:20:35.601Z</time></trkpt><trkpt lat="44.1833166" lon="12.1228332"><ele>32.0</ele><time>2026-04-26T18:20:41.197Z</time></trkpt><trkpt lat="44.183372" lon="12.1228784"><ele>32.0</ele><time>2026-04-26T18:20:46.381Z</time></trkpt><trkpt lat="44.1834307" lon="12.122931"><ele>31.999999999999996</ele><time>2026-04-26T18:20:51.337Z</time></trkpt><trkpt lat="44.1834921" lon="12.122981"><ele>32.0</ele><time>2026-04-26T18:20:56.337Z</time></trkpt><trkpt lat="44.1835505" lon="12.123027"><ele>32.0</ele><time>2026-04-26T18:21:03.297Z</time></trkpt><trkpt lat="44.1836161" lon="12.1230833"><ele>31.999999999999996</ele><time>2026-04-26T18:21:10.36Z</time></trkpt><trkpt lat="44.1836331" lon="12.1231686"><ele>32.0</ele><time>2026-04-26T18:21:17.37Z</time></trkpt><trkpt lat="44.183612" lon="12.1232681"><ele>32.0</ele><time>2026-04-26T18:21:23.366Z</time></trkpt><trkpt lat="44.1835808" lon="12.1233528"><ele>31.857142857142854</ele><time>2026-04-26T18:21:28.344Z</time></trkpt><trkpt lat="44.1835487" lon="12.1234397"><ele>31.71428571428571</ele><time>2026-04-26T18:21:33.296Z</time></trkpt><trkpt lat="44.183522" lon="12.123523"><ele>31.57142857142857</ele><time>2026-04-26T18:21:39.318Z</time></trkpt><trkpt lat="44.1834853" lon="12.1235993"><ele>31.42857142857143</ele><time>2026-04-26T18:21:44.399Z</time></trkpt><trkpt lat="44.1834547" lon="12.1236876"><ele>31.28571428571429</ele><time>2026-04-26T18:21:49.376Z</time></trkpt><trkpt lat="44.1834129" lon="12.1237792"><ele>31.142857142857146</ele><time>2026-04-26T18:21:54.356Z</time></trkpt><trkpt lat="44.183381" lon="12.1238678"><ele>31.0</ele><time>2026-04-26T18:22:00.416Z</time></trkpt><trkpt lat="44.1833738" lon="12.1239642"><ele>31.0</ele><time>2026-04-26T18:22:07.361Z</time></trkpt><trkpt lat="44.1833388" lon="12.1240421"><ele>31.000000000000004</ele><time>2026-04-26T18:22:13.359Z</time></trkpt><trkpt lat="44.1833045" lon="12.1241189"><ele>31.0</ele><time>2026-04-26T18:22:19.351Z</time></trkpt><trkpt lat="44.183249" lon="12.1241774"><ele>31.0</ele><time>2026-04-26T18:22:26.363Z</time></trkpt><trkpt lat="44.1831877" lon="12.1241476"><ele>31.000000000000004</ele><time>2026-04-26T18:22:32.356Z</time></trkpt><trkpt lat="44.1831295" lon="12.1241123"><ele>31.0</ele><time>2026-04-26T18:22:38.352Z</time></trkpt><trkpt lat="44.1830621" lon="12.1240836"><ele>31.0</ele><time>2026-04-26T18:22:44.346Z</time></trkpt><trkpt lat="44.1830007" lon="12.1240606"><ele>31.142857142857146</ele><time>2026-04-26T18:22:50.342Z</time></trkpt><trkpt lat="44.1829388" lon="12.1240373"><ele>31.28571428571429</ele><time>2026-04-26T18:22:57.353Z</time></trkpt><trkpt lat="44.1828732" lon="12.1239928"><ele>31.42857142857143</ele><time>2026-04-26T18:23:03.348Z</time></trkpt><trkpt lat="44.1828087" lon="12.1239395"><ele>31.57142857142857</ele><time>2026-04-26T18:23:09.336Z</time></trkpt><trkpt lat="44.1827433" lon="12.1238964"><ele>31.71428571428571</ele><time>2026-04-26T18:23:15.337Z</time></trkpt><trkpt lat="44.182684" lon="12.1238597"><ele>31.857142857142854</ele><time>2026-04-26T18:23:20.316Z</time></trkpt><trkpt lat="44.1826278" lon="12.1238152"><ele>32.0</ele><time>2026-04-26T18:23:24.379Z</time></trkpt><trkpt lat="44.182563" lon="12.1238105"><ele>32.0</ele><time>2026-04-26T18:23:29.299Z</time></trkpt><trkpt lat="44.1825038" lon="12.1238696"><ele>31.999999999999996</ele><time>2026-04-26T18:23:34.338Z</time></trkpt><trkpt lat="44.1824467" lon="12.12394"><ele>32.0</ele><time>2026-04-26T18:23:38.401Z</time></trkpt><trkpt lat="44.1823759" lon="12.1239587"><ele>32.0</ele><time>2026-04-26T18:23:42.364Z</time></trkpt><trkpt lat="44.1823064" lon="12.1239932"><ele>31.999999999999996</ele><time>2026-04-26T18:23:46.327Z</time></trkpt><trkpt lat="44.1822441" lon="12.1240651"><ele>32.0</ele><time>2026-04-26T18:23:50.391Z</time></trkpt><trkpt lat="44.1822003" lon="12.124138"><ele>32.0</ele><time>2026-04-26T18:23:53.337Z</time></trkpt><trkpt lat="44.1822169" lon="12.1242233"><ele>32.0</ele><time>2026-04-26T18:24:04.311Z</time></trkpt><trkpt lat="44.1822394" lon="12.12432"><ele>31.999999999999996</ele><time>2026-04-26T18:24:12.339Z</time></trkpt><trkpt lat="44.1822242" lon="12.1244102"><ele>32.0</ele><time>2026-04-26T18:24:18.333Z</time></trkpt><trkpt lat="44.18219" lon="12.1244904"><ele>32.0</ele><time>2026-04-26T18:24:23.312Z</time></trkpt><trkpt lat="44.1821569" lon="12.1245686"><ele>31.999999999999996</ele><time>2026-04-26T18:24:28.393Z</time></trkpt><trkpt lat="44.182138" lon="12.1246676"><ele>32.0</ele><time>2026-04-26T18:24:34.387Z</time></trkpt><trkpt lat="44.1821274" lon="12.1247699"><ele>32.0</ele><time>2026-04-26T18:24:40.337Z</time></trkpt><trkpt lat="44.1821245" lon="12.1248619"><ele>31.857142857142854</ele><time>2026-04-26T18:24:46.278Z</time></trkpt><trkpt lat="44.1821291" lon="12.1249568"><ele>31.71428571428571</ele><time>2026-04-26T18:24:50.34Z</time></trkpt><trkpt lat="44.1821316" lon="12.1250452"><ele>31.57142857142857</ele><time>2026-04-26T18:24:55.319Z</time></trkpt><trkpt lat="44.1821937" lon="12.1250852"><ele>31.42857142857143</ele><time>2026-04-26T18:25:00.321Z</time></trkpt><trkpt lat="44.1822555" lon="12.1251394"><ele>31.28571428571429</ele><time>2026-04-26T18:25:05.378Z</time></trkpt><trkpt lat="44.1823153" lon="12.1251711"><ele>31.142857142857146</ele><time>2026-04-26T18:25:09.4Z</time></trkpt><trkpt lat="44.1823777" lon="12.1252108"><ele>31.0</ele><time>2026-04-26T18:25:14.36Z</time></trkpt><trkpt lat="44.1824394" lon="12.1252456"><ele>30.714285714285715</ele><time>2026-04-26T18:25:19.308Z</time></trkpt><trkpt lat="44.1825029" lon="12.1252826"><ele>30.42857142857143</ele><time>2026-04-26T18:25:24.378Z</time></trkpt><trkpt lat="44.1825679" lon="12.1253187"><ele>30.142857142857146</ele><time>2026-04-26T18:25:29.357Z</time></trkpt><trkpt lat="44.1826362" lon="12.1253556"><ele>29.85714285714286</ele><time>2026-04-26T18:25:35.259Z</time></trkpt><trkpt lat="44.1827035" lon="12.1253891"><ele>29.571428571428573</ele><time>2026-04-26T18:25:41.346Z</time></trkpt><trkpt lat="44.1827605" lon="12.1254314"><ele>29.285714285714292</ele><time>2026-04-26T18:25:47.34Z</time></trkpt><trkpt lat="44.1828197" lon="12.1254669"><ele>29.000000000000004</ele><time>2026-04-26T18:25:52.319Z</time></trkpt><trkpt lat="44.1828815" lon="12.1255216"><ele>29.000000000000004</ele><time>2026-04-26T18:25:58.42Z</time></trkpt><trkpt lat="44.1829389" lon="12.1255688"><ele>29.0</ele><time>2026-04-26T18:26:04.309Z</time></trkpt><trkpt lat="44.1830017" lon="12.1256093"><ele>29.000000000000004</ele><time>2026-04-26T18:26:10.308Z</time></trkpt><trkpt lat="44.1830643" lon="12.1256368"><ele>29.000000000000004</ele><time>2026-04-26T18:26:15.384Z</time></trkpt><trkpt lat="44.1831274" lon="12.1256681"><ele>29.0</ele><time>2026-04-26T18:26:20.363Z</time></trkpt><trkpt lat="44.1831894" lon="12.1256965"><ele>29.000000000000004</ele><time>2026-04-26T18:26:25.277Z</time></trkpt><trkpt lat="44.1832523" lon="12.1257287"><ele>29.000000000000004</ele><time>2026-04-26T18:26:30.321Z</time></trkpt><trkpt lat="44.1833138" lon="12.1257747"><ele>29.000000000000004</ele><time>2026-04-26T18:26:35.401Z</time></trkpt><trkpt lat="44.1833749" lon="12.1258234"><ele>29.0</ele><time>2026-04-26T18:26:41.395Z</time></trkpt><trkpt lat="44.1834096" lon="12.1259022"><ele>29.000000000000004</ele><time>2026-04-26T18:26:50.337Z</time></trkpt><trkpt lat="44.1833948" lon="12.1259895"><ele>29.000000000000004</ele><time>2026-04-26T18:26:59.38Z</time></trkpt><trkpt lat="44.1833803" lon="12.1260751"><ele>29.0</ele><time>2026-04-26T18:27:06.324Z</time></trkpt><trkpt lat="44.183366" lon="12.126163"><ele>29.000000000000004</ele><time>2026-04-26T18:27:10.354Z</time></trkpt><trkpt lat="44.1833475" lon="12.1262674"><ele>29.000000000000004</ele><time>2026-04-26T18:27:16.349Z</time></trkpt><trkpt lat="44.1833302" lon="12.1263642"><ele>29.000000000000004</ele><time>2026-04-26T18:27:22.343Z</time></trkpt><trkpt lat="44.1832587" lon="12.1263871"><ele>29.0</ele><time>2026-04-26T18:27:30.355Z</time></trkpt><trkpt lat="44.1831934" lon="12.1264325"><ele>29.000000000000004</ele><time>2026-04-26T18:27:36.365Z</time></trkpt><trkpt lat="44.1831531" lon="12.1265137"><ele>29.000000000000004</ele><time>2026-04-26T18:27:41.343Z</time></trkpt><trkpt lat="44.183153" lon="12.1266027"><ele>29.0</ele><time>2026-04-26T18:27:46.322Z</time></trkpt><trkpt lat="44.1832" lon="12.1266821"><ele>29.000000000000004</ele><time>2026-04-26T18:27:51.307Z</time></trkpt><trkpt lat="44.1831829" lon="12.1267772"><ele>29.000000000000004</ele><time>2026-04-26T18:27:57.398Z</time></trkpt><trkpt lat="44.1831738" lon="12.1268769"><ele>29.166666666666664</ele><time>2026-04-26T18:28:03.391Z</time></trkpt><trkpt lat="44.1831636" lon="12.1269761"><ele>29.333333333333332</ele><time>2026-04-26T18:28:08.371Z</time></trkpt><trkpt lat="44.18316" lon="12.1270821"><ele>29.5</ele><time>2026-04-26T18:28:14.365Z</time></trkpt><trkpt lat="44.1831509" lon="12.1271908"><ele>29.666666666666664</ele><time>2026-04-26T18:28:20.418Z</time></trkpt><trkpt lat="44.1831415" lon="12.1272813"><ele>29.833333333333332</ele><time>2026-04-26T18:28:25.338Z</time></trkpt><trkpt lat="44.1830926" lon="12.1273556"><ele>30.0</ele><time>2026-04-26T18:28:33.365Z</time></trkpt><trkpt lat="44.1829987" lon="12.127317"><ele>30.0</ele><time>2026-04-26T18:28:37.261Z</time></trkpt><trkpt lat="44.1829396" lon="12.1272844"><ele>30.0</ele><time>2026-04-26T18:28:39.361Z</time></trkpt><trkpt lat="44.1828734" lon="12.1272814"><ele>30.0</ele><time>2026-04-26T18:28:44.358Z</time></trkpt><trkpt lat="44.1828094" lon="12.1273011"><ele>30.0</ele><time>2026-04-26T18:28:49.317Z</time></trkpt><trkpt lat="44.1827398" lon="12.1273122"><ele>30.0</ele><time>2026-04-26T18:28:55.312Z</time></trkpt><trkpt lat="44.1826781" lon="12.1273348"><ele>30.0</ele><time>2026-04-26T18:29:01.307Z</time></trkpt><trkpt lat="44.1826122" lon="12.1273494"><ele>30.0</ele><time>2026-04-26T18:29:07.404Z</time></trkpt><trkpt lat="44.1826423" lon="12.1274368"><ele>30.0</ele><time>2026-04-26T18:29:16.276Z</time></trkpt><trkpt lat="44.1825793" lon="12.1274217"><ele>30.0</ele><time>2026-04-26T18:29:26.307Z</time></trkpt><trkpt lat="44.1825041" lon="12.127414"><ele>30.0</ele><time>2026-04-26T18:29:33.314Z</time></trkpt><trkpt lat="44.182436" lon="12.1274487"><ele>30.0</ele><time>2026-04-26T18:29:39.308Z</time></trkpt><trkpt lat="44.1823677" lon="12.1275095"><ele>30.0</ele><time>2026-04-26T18:29:44.4Z</time></trkpt><trkpt lat="44.1823659" lon="12.1276124"><ele>30.0</ele><time>2026-04-26T18:29:50.326Z</time></trkpt><trkpt lat="44.1823998" lon="12.1276925"><ele>30.0</ele><time>2026-04-26T18:29:55.362Z</time></trkpt><trkpt lat="44.1823982" lon="12.1277915"><ele>30.0</ele><time>2026-04-26T18:30:01.356Z</time></trkpt><trkpt lat="44.1823829" lon="12.1278857"><ele>30.0</ele><time>2026-04-26T18:30:06.335Z</time></trkpt><trkpt lat="44.1823692" lon="12.1279781"><ele>30.0</ele><time>2026-04-26T18:30:12.329Z</time></trkpt><trkpt lat="44.1823475" lon="12.1280758"><ele>30.0</ele><time>2026-04-26T18:30:18.276Z</time></trkpt><trkpt lat="44.1823309" lon="12.1281715"><ele>30.0</ele><time>2026-04-26T18:30:23.405Z</time></trkpt><trkpt lat="44.1823158" lon="12.1282658"><ele>30.0</ele><time>2026-04-26T18:30:28.384Z</time></trkpt><trkpt lat="44.1822943" lon="12.1283564"><ele>30.0</ele><time>2026-04-26T18:30:34.378Z</time></trkpt><trkpt lat="44.1822723" lon="12.1284479"><ele>30.0</ele><time>2026-04-26T18:30:40.419Z</time></trkpt><trkpt lat="44.1822597" lon="12.1285375"><ele>30.0</ele><time>2026-04-26T18:30:46.337Z</time></trkpt><trkpt lat="44.1822394" lon="12.128622"><ele>30.0</ele><time>2026-04-26T18:30:51.345Z</time></trkpt><trkpt lat="44.1822138" lon="12.1287174"><ele>30.0</ele><time>2026-04-26T18:30:57.341Z</time></trkpt><trkpt lat="44.1821982" lon="12.1288062"><ele>30.0</ele><time>2026-04-26T18:31:03.336Z</time></trkpt><trkpt lat="44.1821645" lon="12.1288962"><ele>30.0</ele><time>2026-04-26T18:31:09.33Z</time></trkpt><trkpt lat="44.1821411" lon="12.1289829"><ele>30.0</ele><time>2026-04-26T18:31:14.357Z</time></trkpt><trkpt lat="44.1821334" lon="12.1290733"><ele>30.0</ele><time>2026-04-26T18:31:20.307Z</time></trkpt><trkpt lat="44.1821155" lon="12.1291705"><ele>30.0</ele><time>2026-04-26T18:31:26.4Z</time></trkpt><trkpt lat="44.182098" lon="12.1292653"><ele>30.0</ele><time>2026-04-26T18:31:32.419Z</time></trkpt><trkpt lat="44.1820766" lon="12.1293647"><ele>30.0</ele><time>2026-04-26T18:31:38.358Z</time></trkpt><trkpt lat="44.1820565" lon="12.1294631"><ele>30.0</ele><time>2026-04-26T18:31:44.383Z</time></trkpt><trkpt lat="44.1820445" lon="12.1295605"><ele>30.0</ele><time>2026-04-26T18:31:51.325Z</time></trkpt><trkpt lat="44.182035" lon="12.1296573"><ele>30.0</ele><time>2026-04-26T18:31:57.278Z</time></trkpt><trkpt lat="44.1820244" lon="12.1297553"><ele>30.0</ele><time>2026-04-26T18:32:03.384Z</time></trkpt><trkpt lat="44.1820388" lon="12.1298484"><ele>30.0</ele><time>2026-04-26T18:32:09.378Z</time></trkpt><trkpt lat="44.1820624" lon="12.1299431"><ele>30.0</ele><time>2026-04-26T18:32:15.372Z</time></trkpt><trkpt lat="44.1820924" lon="12.1300302"><ele>30.0</ele><time>2026-04-26T18:32:20.352Z</time></trkpt><trkpt lat="44.1821267" lon="12.1301245"><ele>30.0</ele><time>2026-04-26T18:32:26.24Z</time></trkpt><trkpt lat="44.1821701" lon="12.1301915"><ele>30.0</ele><time>2026-04-26T18:32:31.325Z</time></trkpt><trkpt lat="44.1822195" lon="12.1302464"><ele>30.0</ele><time>2026-04-26T18:32:36.308Z</time></trkpt><trkpt lat="44.1822778" lon="12.1303069"><ele>30.0</ele><time>2026-04-26T18:32:42.399Z</time></trkpt><trkpt lat="44.1823295" lon="12.1303573"><ele>30.0</ele><time>2026-04-26T18:32:47.377Z</time></trkpt><trkpt lat="44.1823871" lon="12.1304305"><ele>30.0</ele><time>2026-04-26T18:32:54.389Z</time></trkpt><trkpt lat="44.1824438" lon="12.130499"><ele>30.0</ele><time>2026-04-26T18:33:00.383Z</time></trkpt><trkpt lat="44.1824937" lon="12.1305557"><ele>30.0</ele><time>2026-04-26T18:33:05.362Z</time></trkpt><trkpt lat="44.1825443" lon="12.1306186"><ele>30.0</ele><time>2026-04-26T18:33:10.34Z</time></trkpt><trkpt lat="44.1825941" lon="12.1306905"><ele>30.0</ele><time>2026-04-26T18:33:16.359Z</time></trkpt><trkpt lat="44.1826396" lon="12.1307584"><ele>29.571428571428573</ele><time>2026-04-26T18:33:23.345Z</time></trkpt><trkpt lat="44.1826837" lon="12.130826"><ele>29.142857142857142</ele><time>2026-04-26T18:33:28.42Z</time></trkpt><trkpt lat="44.1827257" lon="12.1308991"><ele>28.714285714285715</ele><time>2026-04-26T18:33:35.335Z</time></trkpt><trkpt lat="44.1827645" lon="12.1309694"><ele>28.285714285714285</ele><time>2026-04-26T18:33:41.329Z</time></trkpt><trkpt lat="44.1828323" lon="12.1310043"><ele>27.857142857142854</ele><time>2026-04-26T18:33:47.324Z</time></trkpt><trkpt lat="44.1828964" lon="12.1310331"><ele>27.428571428571427</ele><time>2026-04-26T18:33:53.319Z</time></trkpt><trkpt lat="44.1829611" lon="12.1310474"><ele>27.0</ele><time>2026-04-26T18:34:01.345Z</time></trkpt><trkpt lat="44.1830192" lon="12.1310086"><ele>27.0</ele><time>2026-04-26T18:34:07.322Z</time></trkpt><trkpt lat="44.1830794" lon="12.1309526"><ele>27.0</ele><time>2026-04-26T18:34:12.319Z</time></trkpt><trkpt lat="44.1831427" lon="12.1309216"><ele>27.0</ele><time>2026-04-26T18:34:17.308Z</time></trkpt><trkpt lat="44.1832076" lon="12.1308992"><ele>27.0</ele><time>2026-04-26T18:34:22.377Z</time></trkpt><trkpt lat="44.1832755" lon="12.1308759"><ele>27.0</ele><time>2026-04-26T18:34:28.371Z</time></trkpt><trkpt lat="44.1833431" lon="12.1308439"><ele>27.0</ele><time>2026-04-26T18:34:33.416Z</time></trkpt><trkpt lat="44.1833877" lon="12.1307805"><ele>27.0</ele><time>2026-04-26T18:34:39.357Z</time></trkpt><trkpt lat="44.1834115" lon="12.1306852"><ele>27.285714285714285</ele><time>2026-04-26T18:34:45.237Z</time></trkpt><trkpt lat="44.1834381" lon="12.1306043"><ele>27.57142857142857</ele><time>2026-04-26T18:34:49.404Z</time></trkpt><trkpt lat="44.1834803" lon="12.1305166"><ele>27.85714285714286</ele><time>2026-04-26T18:34:55.398Z</time></trkpt><trkpt lat="44.1835251" lon="12.1304485"><ele>28.142857142857146</ele><time>2026-04-26T18:35:01.393Z</time></trkpt><trkpt lat="44.1835784" lon="12.130389"><ele>28.42857142857143</ele><time>2026-04-26T18:35:07.387Z</time></trkpt><trkpt lat="44.1836436" lon="12.1304103"><ele>28.71428571428572</ele><time>2026-04-26T18:35:13.322Z</time></trkpt><trkpt lat="44.1837163" lon="12.1304302"><ele>29.000000000000004</ele><time>2026-04-26T18:35:19.278Z</time></trkpt><trkpt lat="44.1837807" lon="12.130451"><ele>29.000000000000004</ele><time>2026-04-26T18:35:24.355Z</time></trkpt><trkpt lat="44.1838426" lon="12.1304683"><ele>29.0</ele><time>2026-04-26T18:35:31.366Z</time></trkpt><trkpt lat="44.1839091" lon="12.1304761"><ele>29.000000000000004</ele><time>2026-04-26T18:35:36.279Z</time></trkpt><trkpt lat="44.1839746" lon="12.1304881"><ele>29.000000000000004</ele><time>2026-04-26T18:35:42.338Z</time></trkpt><trkpt lat="44.1840403" lon="12.1304927"><ele>29.0</ele><time>2026-04-26T18:35:48.332Z</time></trkpt><trkpt lat="44.1841081" lon="12.1305116"><ele>29.000000000000004</ele><time>2026-04-26T18:35:53.311Z</time></trkpt><trkpt lat="44.1841739" lon="12.1305312"><ele>29.000000000000004</ele><time>2026-04-26T18:35:58.391Z</time></trkpt><trkpt lat="44.1842359" lon="12.1305496"><ele>29.285714285714292</ele><time>2026-04-26T18:36:03.369Z</time></trkpt><trkpt lat="44.1843066" lon="12.1305834"><ele>29.571428571428573</ele><time>2026-04-26T18:36:09.365Z</time></trkpt><trkpt lat="44.1843673" lon="12.1306304"><ele>29.85714285714286</ele><time>2026-04-26T18:36:15.358Z</time></trkpt><trkpt lat="44.184432" lon="12.1306692"><ele>30.142857142857146</ele><time>2026-04-26T18:36:22.37Z</time></trkpt><trkpt lat="44.184476" lon="12.1307422"><ele>30.42857142857143</ele><time>2026-04-26T18:36:31.31Z</time></trkpt><trkpt lat="44.184519" lon="12.1308148"><ele>30.714285714285715</ele><time>2026-04-26T18:36:37.407Z</time></trkpt><trkpt lat="44.1845008" lon="12.1309107"><ele>31.0</ele><time>2026-04-26T18:36:45.919Z</time></trkpt><trkpt lat="44.1844988" lon="12.1310009"><ele>31.0</ele><time>2026-04-26T18:36:53.301Z</time></trkpt><trkpt lat="44.1845204" lon="12.131086"><ele>31.000000000000004</ele><time>2026-04-26T18:37:00.369Z</time></trkpt><trkpt lat="44.1845751" lon="12.13104"><ele>31.0</ele><time>2026-04-26T18:37:41.677Z</time></trkpt><trkpt lat="44.1845746" lon="12.13095"><ele>31.0</ele><time>2026-04-26T18:37:49.341Z</time></trkpt><trkpt lat="44.1845983" lon="12.1308593"><ele>31.000000000000004</ele><time>2026-04-26T18:37:56.42Z</time></trkpt><trkpt lat="44.1846265" lon="12.1307764"><ele>31.0</ele><time>2026-04-26T18:38:02.279Z</time></trkpt><trkpt lat="44.1846453" lon="12.1306886"><ele>31.0</ele><time>2026-04-26T18:38:08.323Z</time></trkpt><trkpt lat="44.1846685" lon="12.1306024"><ele>31.0</ele><time>2026-04-26T18:38:13.32Z</time></trkpt><trkpt lat="44.184693" lon="12.1305156"><ele>31.000000000000004</ele><time>2026-04-26T18:38:19.315Z</time></trkpt><trkpt lat="44.1847148" lon="12.1304238"><ele>31.0</ele><time>2026-04-26T18:38:25.31Z</time></trkpt><trkpt lat="44.1847366" lon="12.1303305"><ele>31.0</ele><time>2026-04-26T18:38:31.308Z</time></trkpt><trkpt lat="44.1847515" lon="12.1302448"><ele>31.000000000000004</ele><time>2026-04-26T18:38:36.384Z</time></trkpt><trkpt lat="44.1847694" lon="12.1301475"><ele>31.0</ele><time>2026-04-26T18:38:41.362Z</time></trkpt><trkpt lat="44.1847972" lon="12.1300674"><ele>31.0</ele><time>2026-04-26T18:38:46.341Z</time></trkpt><trkpt lat="44.1848396" lon="12.1299872"><ele>31.0</ele><time>2026-04-26T18:38:53.352Z</time></trkpt><trkpt lat="44.1848817" lon="12.1299136"><ele>31.000000000000004</ele><time>2026-04-26T18:39:00.362Z</time></trkpt><trkpt lat="44.1849" lon="12.1298139"><ele>31.0</ele><time>2026-04-26T18:39:06.356Z</time></trkpt><trkpt lat="44.1849071" lon="12.1297212"><ele>31.0</ele><time>2026-04-26T18:39:11.335Z</time></trkpt><trkpt lat="44.1849338" lon="12.1296321"><ele>31.000000000000004</ele><time>2026-04-26T18:39:16.313Z</time></trkpt><trkpt lat="44.1849766" lon="12.1295523"><ele>31.0</ele><time>2026-04-26T18:39:23.325Z</time></trkpt><trkpt lat="44.185005" lon="12.1294738"><ele>31.0</ele><time>2026-04-26T18:39:29.32Z</time></trkpt><trkpt lat="44.1850342" lon="12.1293903"><ele>31.0</ele><time>2026-04-26T18:39:36.329Z</time></trkpt><trkpt lat="44.185033" lon="12.1292907"><ele>31.000000000000004</ele><time>2026-04-26T18:39:42.324Z</time></trkpt><trkpt lat="44.1850727" lon="12.1292075"><ele>31.0</ele><time>2026-04-26T18:40:06.379Z</time></trkpt><trkpt lat="44.1851009" lon="12.1291276"><ele>31.0</ele><time>2026-04-26T18:40:11.383Z</time></trkpt><trkpt lat="44.1851478" lon="12.1290509"><ele>31.000000000000004</ele><time>2026-04-26T18:40:15.322Z</time></trkpt><trkpt lat="44.1851818" lon="12.1289656"><ele>31.0</ele><time>2026-04-26T18:40:21.341Z</time></trkpt><trkpt lat="44.1852164" lon="12.1288884"><ele>31.0</ele><time>2026-04-26T18:40:31.309Z</time></trkpt><trkpt lat="44.1852386" lon="12.1287891"><ele>31.0</ele><time>2026-04-26T18:40:37.394Z</time></trkpt><trkpt lat="44.1852785" lon="12.1287136"><ele>31.000000000000004</ele><time>2026-04-26T18:40:42.372Z</time></trkpt><trkpt lat="44.1852975" lon="12.128626"><ele>31.0</ele><time>2026-04-26T18:40:47.35Z</time></trkpt><trkpt lat="44.1853056" lon="12.128534"><ele>31.0</ele><time>2026-04-26T18:40:51.313Z</time></trkpt><trkpt lat="44.1853229" lon="12.1284405"><ele>31.000000000000004</ele><time>2026-04-26T18:40:56.394Z</time></trkpt><trkpt lat="44.1853425" lon="12.1283519"><ele>31.0</ele><time>2026-04-26T18:41:02.388Z</time></trkpt><trkpt lat="44.1853714" lon="12.1282729"><ele>31.0</ele><time>2026-04-26T18:41:07.366Z</time></trkpt><trkpt lat="44.1853921" lon="12.1281781"><ele>31.142857142857146</ele><time>2026-04-26T18:41:12.345Z</time></trkpt><trkpt lat="44.1854174" lon="12.1280915"><ele>31.28571428571429</ele><time>2026-04-26T18:41:18.956Z</time></trkpt><trkpt lat="44.1854472" lon="12.128009"><ele>31.42857142857143</ele><time>2026-04-26T18:41:26.367Z</time></trkpt><trkpt lat="44.1854557" lon="12.1279092"><ele>31.57142857142857</ele><time>2026-04-26T18:41:32.361Z</time></trkpt><trkpt lat="44.1854781" lon="12.1278048"><ele>31.71428571428571</ele><time>2026-04-26T18:41:38.356Z</time></trkpt><trkpt lat="44.1855056" lon="12.1277224"><ele>31.857142857142854</ele><time>2026-04-26T18:41:43.237Z</time></trkpt><trkpt lat="44.1855341" lon="12.1276293"><ele>32.0</ele><time>2026-04-26T18:41:49.329Z</time></trkpt><trkpt lat="44.1855602" lon="12.1275419"><ele>32.0</ele><time>2026-04-26T18:41:56.339Z</time></trkpt><trkpt lat="44.1856121" lon="12.1274868"><ele>31.999999999999996</ele><time>2026-04-26T18:42:06.398Z</time></trkpt><trkpt lat="44.1856547" lon="12.1274181"><ele>32.0</ele><time>2026-04-26T18:42:12.394Z</time></trkpt><trkpt lat="44.1857056" lon="12.1273573"><ele>32.0</ele><time>2026-04-26T18:42:20.318Z</time></trkpt><trkpt lat="44.1857691" lon="12.1273879"><ele>31.999999999999996</ele><time>2026-04-26T18:42:32.41Z</time></trkpt><trkpt lat="44.1858381" lon="12.1273909"><ele>32.0</ele><time>2026-04-26T18:42:40.334Z</time></trkpt><trkpt lat="44.1858895" lon="12.12734"><ele>32.0</ele><time>2026-04-26T18:42:46.33Z</time></trkpt><trkpt lat="44.1858995" lon="12.1272375"><ele>32.14285714285714</ele><time>2026-04-26T18:42:52.323Z</time></trkpt><trkpt lat="44.1858832" lon="12.1271508"><ele>32.285714285714285</ele><time>2026-04-26T18:42:58.319Z</time></trkpt><trkpt lat="44.1858609" lon="12.1270546"><ele>32.42857142857143</ele><time>2026-04-26T18:43:04.322Z</time></trkpt><trkpt lat="44.1859004" lon="12.1269792"><ele>32.57142857142857</ele><time>2026-04-26T18:43:09.394Z</time></trkpt><trkpt lat="44.1859475" lon="12.126902"><ele>32.714285714285715</ele><time>2026-04-26T18:43:15.388Z</time></trkpt><trkpt lat="44.1860082" lon="12.1268451"><ele>32.857142857142854</ele><time>2026-04-26T18:43:21.383Z</time></trkpt><trkpt lat="44.1860658" lon="12.1267948"><ele>33.0</ele><time>2026-04-26T18:43:27.378Z</time></trkpt><trkpt lat="44.1861273" lon="12.1267425"><ele>33.0</ele><time>2026-04-26T18:43:34.388Z</time></trkpt><trkpt lat="44.1861917" lon="12.1266845"><ele>33.0</ele><time>2026-04-26T18:43:40.383Z</time></trkpt><trkpt lat="44.1862489" lon="12.1266344"><ele>33.0</ele><time>2026-04-26T18:43:46.378Z</time></trkpt><trkpt lat="44.1863118" lon="12.1265849"><ele>33.0</ele><time>2026-04-26T18:43:53.389Z</time></trkpt><trkpt lat="44.1863749" lon="12.126539"><ele>33.0</ele><time>2026-04-26T18:43:59.383Z</time></trkpt><trkpt lat="44.1864" lon="12.1264235"><ele>33.0</ele><time>2026-04-26T18:45:03.393Z</time></trkpt><trkpt lat="44.1864615" lon="12.1263602"><ele>32.714285714285715</ele><time>2026-04-26T18:45:08.372Z</time></trkpt><trkpt lat="44.186519" lon="12.1263031"><ele>32.42857142857143</ele><time>2026-04-26T18:45:14.368Z</time></trkpt><trkpt lat="44.186582" lon="12.1263"><ele>32.142857142857146</ele><time>2026-04-26T18:45:20.363Z</time></trkpt><trkpt lat="44.1866483" lon="12.1262754"><ele>31.857142857142858</ele><time>2026-04-26T18:45:29.399Z</time></trkpt><trkpt lat="44.186712" lon="12.1262404"><ele>31.571428571428577</ele><time>2026-04-26T18:45:36.315Z</time></trkpt><trkpt lat="44.1867703" lon="12.1261804"><ele>31.28571428571429</ele><time>2026-04-26T18:45:44.341Z</time></trkpt><trkpt lat="44.1868277" lon="12.1261355"><ele>31.0</ele><time>2026-04-26T18:45:50.259Z</time></trkpt><trkpt lat="44.1869018" lon="12.1261125"><ele>31.0</ele><time>2026-04-26T18:45:56.331Z</time></trkpt><trkpt lat="44.1869708" lon="12.1261227"><ele>31.000000000000004</ele><time>2026-04-26T18:46:02.324Z</time></trkpt><trkpt lat="44.1870394" lon="12.1261027"><ele>31.0</ele><time>2026-04-26T18:46:09.335Z</time></trkpt><trkpt lat="44.1871034" lon="12.126096"><ele>31.0</ele><time>2026-04-26T18:46:16.257Z</time></trkpt><trkpt lat="44.1871629" lon="12.1261506"><ele>31.000000000000004</ele><time>2026-04-26T18:46:23.358Z</time></trkpt><trkpt lat="44.1872239" lon="12.1261961"><ele>31.0</ele><time>2026-04-26T18:46:28.336Z</time></trkpt><trkpt lat="44.1872865" lon="12.1262368"><ele>31.0</ele><time>2026-04-26T18:46:34.33Z</time></trkpt><trkpt lat="44.1873488" lon="12.1262887"><ele>31.142857142857146</ele><time>2026-04-26T18:46:41.342Z</time></trkpt><trkpt lat="44.1874034" lon="12.1263419"><ele>31.28571428571429</ele><time>2026-04-26T18:46:48.297Z</time></trkpt><trkpt lat="44.1874361" lon="12.1264225"><ele>31.42857142857143</ele><time>2026-04-26T18:46:57.395Z</time></trkpt><trkpt lat="44.1875023" lon="12.126427"><ele>31.57142857142857</ele><time>2026-04-26T18:47:04.406Z</time></trkpt><trkpt lat="44.1875036" lon="12.1263346"><ele>31.71428571428571</ele><time>2026-04-26T18:47:12.339Z</time></trkpt><trkpt lat="44.1875207" lon="12.1262421"><ele>31.857142857142854</ele><time>2026-04-26T18:47:19.24Z</time></trkpt><trkpt lat="44.1875513" lon="12.1261461"><ele>32.0</ele><time>2026-04-26T18:47:24.32Z</time></trkpt><trkpt lat="44.1875827" lon="12.1260522"><ele>32.0</ele><time>2026-04-26T18:47:29.4Z</time></trkpt><trkpt lat="44.1876091" lon="12.1259611"><ele>31.999999999999996</ele><time>2026-04-26T18:47:35.396Z</time></trkpt><trkpt lat="44.1876498" lon="12.1258819"><ele>32.0</ele><time>2026-04-26T18:47:56.417Z</time></trkpt><trkpt lat="44.1876696" lon="12.1257941"><ele>32.0</ele><time>2026-04-26T18:48:02.322Z</time></trkpt><trkpt lat="44.1877477" lon="12.125731"><ele>31.999999999999996</ele><time>2026-04-26T18:48:17.359Z</time></trkpt><trkpt lat="44.1878084" lon="12.125683"><ele>32.0</ele><time>2026-04-26T18:48:22.337Z</time></trkpt><trkpt lat="44.1878585" lon="12.1256263"><ele>32.0</ele><time>2026-04-26T18:48:28.332Z</time></trkpt><trkpt lat="44.1878488" lon="12.1255292"><ele>32.0</ele><time>2026-04-26T18:48:32.396Z</time></trkpt><trkpt lat="44.1878581" lon="12.1254375"><ele>31.999999999999996</ele><time>2026-04-26T18:48:40.326Z</time></trkpt><trkpt lat="44.1878568" lon="12.1253435"><ele>32.0</ele><time>2026-04-26T18:48:45.402Z</time></trkpt><trkpt lat="44.1878824" lon="12.1252531"><ele>32.0</ele><time>2026-04-26T18:48:51.397Z</time></trkpt><trkpt lat="44.1879406" lon="12.1251962"><ele>31.999999999999996</ele><time>2026-04-26T18:48:58.377Z</time></trkpt><trkpt lat="44.1879946" lon="12.1251501"><ele>32.0</ele><time>2026-04-26T18:49:05.317Z</time></trkpt><trkpt lat="44.1879408" lon="12.1250987"><ele>32.0</ele><time>2026-04-26T18:49:17.309Z</time></trkpt><trkpt lat="44.1879433" lon="12.1250096"><ele>32.0</ele><time>2026-04-26T18:49:31.327Z</time></trkpt><trkpt lat="44.1879815" lon="12.1249208"><ele>31.999999999999996</ele><time>2026-04-26T18:49:39.354Z</time></trkpt><trkpt lat="44.1880279" lon="12.1248132"><ele>32.0</ele><time>2026-04-26T18:49:43.317Z</time></trkpt><trkpt lat="44.1880617" lon="12.1247389"><ele>32.0</ele><time>2026-04-26T18:49:46.366Z</time></trkpt><trkpt lat="44.1881031" lon="12.1246597"><ele>31.999999999999996</ele><time>2026-04-26T18:49:50.327Z</time></trkpt><trkpt lat="44.1881475" lon="12.1245909"><ele>32.0</ele><time>2026-04-26T18:49:54.393Z</time></trkpt><trkpt lat="44.1881769" lon="12.1244901"><ele>32.0</ele><time>2026-04-26T18:50:00.387Z</time></trkpt><trkpt lat="44.1882115" lon="12.1243902"><ele>31.857142857142854</ele><time>2026-04-26T18:50:06.381Z</time></trkpt><trkpt lat="44.1882482" lon="12.1242961"><ele>31.71428571428571</ele><time>2026-04-26T18:50:11.361Z</time></trkpt><trkpt lat="44.1882739" lon="12.1242122"><ele>31.57142857142857</ele><time>2026-04-26T18:50:14.408Z</time></trkpt><trkpt lat="44.188304" lon="12.1241135"><ele>31.42857142857143</ele><time>2026-04-26T18:50:18.4Z</time></trkpt><trkpt lat="44.1883356" lon="12.1240199"><ele>31.28571428571429</ele><time>2026-04-26T18:50:23.35Z</time></trkpt><trkpt lat="44.1883527" lon="12.1239287"><ele>31.142857142857146</ele><time>2026-04-26T18:50:30.361Z</time></trkpt><trkpt lat="44.1883885" lon="12.1238564"><ele>31.0</ele><time>2026-04-26T18:50:36.356Z</time></trkpt><trkpt lat="44.1884265" lon="12.1237722"><ele>31.0</ele><time>2026-04-26T18:50:41.338Z</time></trkpt><trkpt lat="44.1884514" lon="12.1236854"><ele>31.000000000000004</ele><time>2026-04-26T18:50:45.399Z</time></trkpt><trkpt lat="44.1884861" lon="12.1236105"><ele>31.0</ele><time>2026-04-26T18:51:03.281Z</time></trkpt><trkpt lat="44.1885478" lon="12.1235687"><ele>31.0</ele><time>2026-04-26T18:51:06.329Z</time></trkpt><trkpt lat="44.1885716" lon="12.123482"><ele>31.000000000000004</ele><time>2026-04-26T18:51:10.394Z</time></trkpt><trkpt lat="44.1886068" lon="12.123409"><ele>31.0</ele><time>2026-04-26T18:51:13.34Z</time></trkpt><trkpt lat="44.1886531" lon="12.1233125"><ele>31.0</ele><time>2026-04-26T18:51:17.309Z</time></trkpt><trkpt lat="44.1886742" lon="12.123224"><ele>31.0</ele><time>2026-04-26T18:51:21.357Z</time></trkpt><trkpt lat="44.1886993" lon="12.1231326"><ele>31.000000000000004</ele><time>2026-04-26T18:51:26.347Z</time></trkpt><trkpt lat="44.1887226" lon="12.1230469"><ele>31.0</ele><time>2026-04-26T18:51:32.34Z</time></trkpt><trkpt lat="44.1887555" lon="12.1229549"><ele>31.0</ele><time>2026-04-26T18:51:37.32Z</time></trkpt><trkpt lat="44.1887893" lon="12.1228669"><ele>31.000000000000004</ele><time>2026-04-26T18:51:43.315Z</time></trkpt><trkpt lat="44.1888223" lon="12.1227812"><ele>31.0</ele><time>2026-04-26T18:51:50.325Z</time></trkpt><trkpt lat="44.1888528" lon="12.1226995"><ele>31.0</ele><time>2026-04-26T18:51:55.417Z</time></trkpt><trkpt lat="44.1888781" lon="12.1226111"><ele>31.0</ele><time>2026-04-26T18:52:01.401Z</time></trkpt><trkpt lat="44.1889123" lon="12.1225274"><ele>31.000000000000004</ele><time>2026-04-26T18:52:07.394Z</time></trkpt><trkpt lat="44.1889448" lon="12.1224422"><ele>31.0</ele><time>2026-04-26T18:52:14.405Z</time></trkpt><trkpt lat="44.1889767" lon="12.1223503"><ele>31.0</ele><time>2026-04-26T18:52:21.314Z</time></trkpt><trkpt lat="44.1890115" lon="12.1222563"><ele>31.000000000000004</ele><time>2026-04-26T18:52:26.396Z</time></trkpt><trkpt lat="44.1889822" lon="12.1221771"><ele>31.0</ele><time>2026-04-26T18:52:34.277Z</time></trkpt><trkpt lat="44.1889178" lon="12.1221183"><ele>31.0</ele><time>2026-04-26T18:52:41.331Z</time></trkpt><trkpt lat="44.1888637" lon="12.1220617"><ele>30.857142857142858</ele><time>2026-04-26T18:52:45.396Z</time></trkpt><trkpt lat="44.1887973" lon="12.1220109"><ele>30.714285714285715</ele><time>2026-04-26T18:52:50.375Z</time></trkpt><trkpt lat="44.1887344" lon="12.1219682"><ele>30.571428571428573</ele><time>2026-04-26T18:52:56.37Z</time></trkpt><trkpt lat="44.1886676" lon="12.1219294"><ele>30.42857142857143</ele><time>2026-04-26T18:53:02.364Z</time></trkpt><trkpt lat="44.1886031" lon="12.1218951"><ele>30.285714285714285</ele><time>2026-04-26T18:53:08.358Z</time></trkpt><trkpt lat="44.1885403" lon="12.121858"><ele>30.142857142857146</ele><time>2026-04-26T18:53:15.369Z</time></trkpt><trkpt lat="44.1884799" lon="12.1218194"><ele>30.0</ele><time>2026-04-26T18:53:21.364Z</time></trkpt><trkpt lat="44.1884206" lon="12.1217896"><ele>30.0</ele><time>2026-04-26T18:53:26.325Z</time></trkpt><trkpt lat="44.1883472" lon="12.1217584"><ele>30.0</ele><time>2026-04-26T18:53:32.338Z</time></trkpt><trkpt lat="44.1882732" lon="12.1217437"><ele>30.0</ele><time>2026-04-26T18:53:37.317Z</time></trkpt><trkpt lat="44.1882102" lon="12.1217331"><ele>30.0</ele><time>2026-04-26T18:53:41.38Z</time></trkpt><trkpt lat="44.1881407" lon="12.1217251"><ele>30.0</ele><time>2026-04-26T18:53:46.36Z</time></trkpt><trkpt lat="44.188067" lon="12.1217133"><ele>30.0</ele><time>2026-04-26T18:53:51.338Z</time></trkpt><trkpt lat="44.1879963" lon="12.1217043"><ele>30.0</ele><time>2026-04-26T18:53:56.316Z</time></trkpt><trkpt lat="44.1879225" lon="12.1217219"><ele>29.857142857142858</ele><time>2026-04-26T18:54:02.312Z</time></trkpt><trkpt lat="44.1878618" lon="12.1217691"><ele>29.714285714285715</ele><time>2026-04-26T18:54:09.322Z</time></trkpt><trkpt lat="44.1878025" lon="12.1217336"><ele>29.571428571428573</ele><time>2026-04-26T18:54:29.339Z</time></trkpt><trkpt lat="44.1877404" lon="12.121755"><ele>29.42857142857143</ele><time>2026-04-26T18:54:35.14Z</time></trkpt><trkpt lat="44.1876729" lon="12.1217797"><ele>29.285714285714285</ele><time>2026-04-26T18:54:41.318Z</time></trkpt><trkpt lat="44.1876126" lon="12.1218163"><ele>29.142857142857146</ele><time>2026-04-26T18:54:48.339Z</time></trkpt><trkpt lat="44.187592" lon="12.1219098"><ele>29.000000000000004</ele><time>2026-04-26T18:54:59.358Z</time></trkpt><trkpt lat="44.1875658" lon="12.1220013"><ele>29.000000000000004</ele><time>2026-04-26T18:55:09.372Z</time></trkpt><trkpt lat="44.1875423" lon="12.1220926"><ele>29.0</ele><time>2026-04-26T18:55:16.383Z</time></trkpt><trkpt lat="44.1875303" lon="12.122179"><ele>29.000000000000004</ele><time>2026-04-26T18:55:20.345Z</time></trkpt><trkpt lat="44.1875233" lon="12.1222673"><ele>29.000000000000004</ele><time>2026-04-26T18:55:26.238Z</time></trkpt><trkpt lat="44.1875129" lon="12.1223631"><ele>29.0</ele><time>2026-04-26T18:55:32.335Z</time></trkpt><trkpt lat="44.1874701" lon="12.1224324"><ele>29.000000000000004</ele><time>2026-04-26T18:55:38.33Z</time></trkpt><trkpt lat="44.1874315" lon="12.1225057"><ele>29.000000000000004</ele><time>2026-04-26T18:55:46.356Z</time></trkpt><trkpt lat="44.1873706" lon="12.1224528"><ele>29.000000000000004</ele><time>2026-04-26T18:55:52.35Z</time></trkpt><trkpt lat="44.1873094" lon="12.1224157"><ele>29.0</ele><time>2026-04-26T18:55:58.346Z</time></trkpt><trkpt lat="44.187247" lon="12.1223723"><ele>29.000000000000004</ele><time>2026-04-26T18:56:03.356Z</time></trkpt><trkpt lat="44.1871832" lon="12.122329"><ele>29.000000000000004</ele><time>2026-04-26T18:56:10.301Z</time></trkpt><trkpt lat="44.1871211" lon="12.1222898"><ele>29.0</ele><time>2026-04-26T18:56:17.28Z</time></trkpt><trkpt lat="44.1870493" lon="12.122254"><ele>29.000000000000004</ele><time>2026-04-26T18:56:22.324Z</time></trkpt><trkpt lat="44.1870029" lon="12.1221943"><ele>29.000000000000004</ele><time>2026-04-26T18:56:27.4Z</time></trkpt><trkpt lat="44.1870273" lon="12.122111"><ele>29.000000000000004</ele><time>2026-04-26T18:56:31.325Z</time></trkpt><trkpt lat="44.1870507" lon="12.1220244"><ele>29.0</ele><time>2026-04-26T18:56:37.318Z</time></trkpt><trkpt lat="44.1870764" lon="12.1219413"><ele>29.000000000000004</ele><time>2026-04-26T18:56:42.34Z</time></trkpt><trkpt lat="44.1871101" lon="12.1218495"><ele>29.000000000000004</ele><time>2026-04-26T18:56:48.335Z</time></trkpt><trkpt lat="44.1871422" lon="12.1217559"><ele>29.0</ele><time>2026-04-26T18:56:53.377Z</time></trkpt><trkpt lat="44.1871312" lon="12.1216579"><ele>29.000000000000004</ele><time>2026-04-26T18:57:00.325Z</time></trkpt><trkpt lat="44.1871141" lon="12.1215662"><ele>29.000000000000004</ele><time>2026-04-26T18:57:21.358Z</time></trkpt><trkpt lat="44.1870503" lon="12.1215513"><ele>29.142857142857146</ele><time>2026-04-26T18:57:32.33Z</time></trkpt><trkpt lat="44.1869873" lon="12.1214987"><ele>29.285714285714285</ele><time>2026-04-26T18:57:38.42Z</time></trkpt><trkpt lat="44.1869267" lon="12.1214565"><ele>29.42857142857143</ele><time>2026-04-26T18:57:44.321Z</time></trkpt><trkpt lat="44.1869596" lon="12.1213729"><ele>29.571428571428573</ele><time>2026-04-26T18:57:52.347Z</time></trkpt><trkpt lat="44.1869728" lon="12.1212855"><ele>29.714285714285715</ele><time>2026-04-26T18:58:00.374Z</time></trkpt><trkpt lat="44.1869832" lon="12.1211847"><ele>29.857142857142858</ele><time>2026-04-26T18:58:07.337Z</time></trkpt><trkpt lat="44.1869842" lon="12.1210947"><ele>30.0</ele><time>2026-04-26T18:58:13.322Z</time></trkpt><trkpt lat="44.1869834" lon="12.1209943"><ele>30.0</ele><time>2026-04-26T18:58:20.376Z</time></trkpt><trkpt lat="44.1869982" lon="12.1208995"><ele>30.0</ele><time>2026-04-26T18:58:26.327Z</time></trkpt><trkpt lat="44.1870049" lon="12.12081"><ele>30.0</ele><time>2026-04-26T18:58:31.364Z</time></trkpt><trkpt lat="44.1870101" lon="12.1207086"><ele>30.0</ele><time>2026-04-26T18:58:36.343Z</time></trkpt><trkpt lat="44.1869989" lon="12.1206197"><ele>30.0</ele><time>2026-04-26T18:58:42.336Z</time></trkpt><trkpt lat="44.1869318" lon="12.1205974"><ele>30.0</ele><time>2026-04-26T18:58:46.323Z</time></trkpt><trkpt lat="44.1869059" lon="12.1205058"><ele>30.0</ele><time>2026-04-26T18:58:54.398Z</time></trkpt><trkpt lat="44.1869246" lon="12.1204163"><ele>29.857142857142858</ele><time>2026-04-26T18:59:00.321Z</time></trkpt><trkpt lat="44.1869082" lon="12.120317"><ele>29.714285714285715</ele><time>2026-04-26T18:59:06.316Z</time></trkpt><trkpt lat="44.1868961" lon="12.1202145"><ele>29.571428571428573</ele><time>2026-04-26T18:59:12.31Z</time></trkpt><trkpt lat="44.186879" lon="12.1201188"><ele>29.42857142857143</ele><time>2026-04-26T18:59:17.39Z</time></trkpt><trkpt lat="44.1868594" lon="12.1200317"><ele>29.285714285714285</ele><time>2026-04-26T18:59:22.28Z</time></trkpt><trkpt lat="44.1868383" lon="12.1199409"><ele>29.142857142857146</ele><time>2026-04-26T18:59:28.365Z</time></trkpt><trkpt lat="44.1868088" lon="12.1198514"><ele>29.000000000000004</ele><time>2026-04-26T18:59:34.359Z</time></trkpt><trkpt lat="44.1867762" lon="12.1197736"><ele>29.000000000000004</ele><time>2026-04-26T18:59:39.24Z</time></trkpt><trkpt lat="44.1867456" lon="12.1196931"><ele>29.0</ele><time>2026-04-26T18:59:44.301Z</time></trkpt><trkpt lat="44.1867238" lon="12.1195954"><ele>29.000000000000004</ele><time>2026-04-26T18:59:51.327Z</time></trkpt><trkpt lat="44.1867338" lon="12.1195008"><ele>29.000000000000004</ele><time>2026-04-26T18:59:58.337Z</time></trkpt><trkpt lat="44.1866997" lon="12.119397"><ele>29.0</ele><time>2026-04-26T19:00:03.317Z</time></trkpt><trkpt lat="44.1866584" lon="12.1193242"><ele>29.000000000000004</ele><time>2026-04-26T19:00:07.381Z</time></trkpt><trkpt lat="44.186607" lon="12.1192582"><ele>29.000000000000004</ele><time>2026-04-26T19:00:12.36Z</time></trkpt><trkpt lat="44.1865529" lon="12.1191853"><ele>28.85714285714286</ele><time>2026-04-26T19:00:18.354Z</time></trkpt><trkpt lat="44.1865019" lon="12.1191187"><ele>28.714285714285715</ele><time>2026-04-26T19:00:23.332Z</time></trkpt><trkpt lat="44.1864506" lon="12.1190617"><ele>28.571428571428573</ele><time>2026-04-26T19:00:28.311Z</time></trkpt><trkpt lat="44.1864111" lon="12.1189782"><ele>28.42857142857143</ele><time>2026-04-26T19:00:33.392Z</time></trkpt><trkpt lat="44.1863704" lon="12.1189041"><ele>28.285714285714285</ele><time>2026-04-26T19:00:39.386Z</time></trkpt><trkpt lat="44.1862995" lon="12.1188745"><ele>28.142857142857142</ele><time>2026-04-26T19:00:46.397Z</time></trkpt><trkpt lat="44.1862844" lon="12.1187854"><ele>28.0</ele><time>2026-04-26T19:01:09.36Z</time></trkpt><trkpt lat="44.1862905" lon="12.1186822"><ele>28.0</ele><time>2026-04-26T19:01:13.375Z</time></trkpt><trkpt lat="44.1863166" lon="12.1185993"><ele>28.0</ele><time>2026-04-26T19:01:17.3Z</time></trkpt><trkpt lat="44.1863267" lon="12.1185072"><ele>28.0</ele><time>2026-04-26T19:01:22.364Z</time></trkpt><trkpt lat="44.1863343" lon="12.1184002"><ele>28.0</ele><time>2026-04-26T19:01:29.158Z</time></trkpt><trkpt lat="44.1863476" lon="12.1183051"><ele>28.0</ele><time>2026-04-26T19:01:37.338Z</time></trkpt><trkpt lat="44.1863635" lon="12.1182073"><ele>28.0</ele><time>2026-04-26T19:01:43.418Z</time></trkpt><trkpt lat="44.1863763" lon="12.1181204"><ele>28.0</ele><time>2026-04-26T19:01:49.392Z</time></trkpt><trkpt lat="44.1863861" lon="12.1180237"><ele>28.142857142857142</ele><time>2026-04-26T19:01:55.387Z</time></trkpt><trkpt lat="44.1863869" lon="12.1179244"><ele>28.285714285714285</ele><time>2026-04-26T19:02:01.381Z</time></trkpt><trkpt lat="44.1863297" lon="12.1178647"><ele>28.42857142857143</ele><time>2026-04-26T19:02:10.323Z</time></trkpt><trkpt lat="44.1862763" lon="12.1178171"><ele>28.571428571428573</ele><time>2026-04-26T19:02:16.317Z</time></trkpt><trkpt lat="44.1862171" lon="12.1177695"><ele>28.714285714285715</ele><time>2026-04-26T19:02:34.403Z</time></trkpt><trkpt lat="44.1861556" lon="12.1177293"><ele>28.85714285714286</ele><time>2026-04-26T19:02:39.382Z</time></trkpt><trkpt lat="44.1860887" lon="12.1176808"><ele>29.000000000000004</ele><time>2026-04-26T19:02:45.377Z</time></trkpt><trkpt lat="44.1860298" lon="12.1176497"><ele>29.000000000000004</ele><time>2026-04-26T19:02:50.253Z</time></trkpt><trkpt lat="44.185962" lon="12.1176256"><ele>29.0</ele><time>2026-04-26T19:02:57.365Z</time></trkpt><trkpt lat="44.1858959" lon="12.1175978"><ele>29.000000000000004</ele><time>2026-04-26T19:03:02.345Z</time></trkpt><trkpt lat="44.185835" lon="12.117567"><ele>29.000000000000004</ele><time>2026-04-26T19:03:07.216Z</time></trkpt><trkpt lat="44.1857732" lon="12.1175195"><ele>29.0</ele><time>2026-04-26T19:03:12.404Z</time></trkpt><trkpt lat="44.1857062" lon="12.1174757"><ele>29.000000000000004</ele><time>2026-04-26T19:03:17.382Z</time></trkpt><trkpt lat="44.1856492" lon="12.117427"><ele>29.000000000000004</ele><time>2026-04-26T19:03:23.08Z</time></trkpt><trkpt lat="44.1856024" lon="12.1173601"><ele>29.000000000000004</ele><time>2026-04-26T19:03:28.355Z</time></trkpt><trkpt lat="44.1855508" lon="12.1173016"><ele>29.0</ele><time>2026-04-26T19:03:33.334Z</time></trkpt><trkpt lat="44.1855701" lon="12.1172061"><ele>29.000000000000004</ele><time>2026-04-26T19:03:39.328Z</time></trkpt><trkpt lat="44.1856074" lon="12.1171261"><ele>29.000000000000004</ele><time>2026-04-26T19:03:45.324Z</time></trkpt><trkpt lat="44.185655" lon="12.1170531"><ele>29.0</ele><time>2026-04-26T19:03:51.317Z</time></trkpt><trkpt lat="44.1856703" lon="12.116964"><ele>29.000000000000004</ele><time>2026-04-26T19:03:56.399Z</time></trkpt><trkpt lat="44.1856251" lon="12.1168916"><ele>29.000000000000004</ele><time>2026-04-26T19:04:01.376Z</time></trkpt><trkpt lat="44.1855631" lon="12.1168458"><ele>29.000000000000004</ele><time>2026-04-26T19:04:07.278Z</time></trkpt><trkpt lat="44.1855034" lon="12.1167923"><ele>29.0</ele><time>2026-04-26T19:04:12.35Z</time></trkpt><trkpt lat="44.1854371" lon="12.116735"><ele>29.000000000000004</ele><time>2026-04-26T19:04:18.344Z</time></trkpt><trkpt lat="44.1853767" lon="12.116684"><ele>29.000000000000004</ele><time>2026-04-26T19:04:23.42Z</time></trkpt><trkpt lat="44.185312" lon="12.1166348"><ele>29.0</ele><time>2026-04-26T19:04:30.396Z</time></trkpt><trkpt lat="44.1852472" lon="12.1165938"><ele>29.000000000000004</ele><time>2026-04-26T19:04:36.328Z</time></trkpt><trkpt lat="44.1851994" lon="12.1165271"><ele>29.000000000000004</ele><time>2026-04-26T19:04:41.31Z</time></trkpt><trkpt lat="44.1851403" lon="12.1164702"><ele>29.142857142857146</ele><time>2026-04-26T19:04:46.387Z</time></trkpt><trkpt lat="44.1850808" lon="12.116429"><ele>29.285714285714285</ele><time>2026-04-26T19:04:51.365Z</time></trkpt><trkpt lat="44.1850263" lon="12.1163849"><ele>29.42857142857143</ele><time>2026-04-26T19:04:56.344Z</time></trkpt><trkpt lat="44.1849608" lon="12.1163425"><ele>29.571428571428573</ele><time>2026-04-26T19:05:02.257Z</time></trkpt><trkpt lat="44.1849002" lon="12.1163059"><ele>29.714285714285715</ele><time>2026-04-26T19:05:07.42Z</time></trkpt><trkpt lat="44.1848348" lon="12.1162586"><ele>29.857142857142858</ele><time>2026-04-26T19:05:12.398Z</time></trkpt><trkpt lat="44.1847753" lon="12.1162135"><ele>30.0</ele><time>2026-04-26T19:05:17.376Z</time></trkpt><trkpt lat="44.1847157" lon="12.1161756"><ele>30.0</ele><time>2026-04-26T19:05:23.277Z</time></trkpt><trkpt lat="44.184656" lon="12.1161261"><ele>30.0</ele><time>2026-04-26T19:05:29.365Z</time></trkpt><trkpt lat="44.1845915" lon="12.1160819"><ele>30.0</ele><time>2026-04-26T19:05:35.361Z</time></trkpt><trkpt lat="44.1845353" lon="12.1160423"><ele>30.0</ele><time>2026-04-26T19:05:40.358Z</time></trkpt><trkpt lat="44.1844739" lon="12.1160026"><ele>30.0</ele><time>2026-04-26T19:05:45.318Z</time></trkpt><trkpt lat="44.1844085" lon="12.1159538"><ele>30.0</ele><time>2026-04-26T19:05:50.398Z</time></trkpt><trkpt lat="44.1843454" lon="12.1159109"><ele>30.0</ele><time>2026-04-26T19:05:56.393Z</time></trkpt><trkpt lat="44.184288" lon="12.1158576"><ele>30.0</ele><time>2026-04-26T19:06:02.387Z</time></trkpt><trkpt lat="44.1842336" lon="12.1158091"><ele>30.0</ele><time>2026-04-26T19:06:08.381Z</time></trkpt><trkpt lat="44.1841692" lon="12.1157583"><ele>30.0</ele><time>2026-04-26T19:06:15.393Z</time></trkpt><trkpt lat="44.1841112" lon="12.1157018"><ele>30.0</ele><time>2026-04-26T19:06:20.371Z</time></trkpt><trkpt lat="44.1840453" lon="12.1156575"><ele>30.0</ele><time>2026-04-26T19:06:25.349Z</time></trkpt><trkpt lat="44.1839797" lon="12.1156113"><ele>30.0</ele><time>2026-04-26T19:06:31.345Z</time></trkpt><trkpt lat="44.1839196" lon="12.1155627"><ele>30.0</ele><time>2026-04-26T19:06:37.339Z</time></trkpt><trkpt lat="44.183859" lon="12.1155154"><ele>29.571428571428573</ele><time>2026-04-26T19:06:42.241Z</time></trkpt><trkpt lat="44.1837962" lon="12.1154763"><ele>29.142857142857142</ele><time>2026-04-26T19:06:48.312Z</time></trkpt><trkpt lat="44.1837391" lon="12.1154355"><ele>28.714285714285715</ele><time>2026-04-26T19:06:53.393Z</time></trkpt><trkpt lat="44.1836709" lon="12.1153964"><ele>28.285714285714285</ele><time>2026-04-26T19:06:59.386Z</time></trkpt><trkpt lat="44.1836113" lon="12.115352"><ele>27.857142857142854</ele><time>2026-04-26T19:07:04.366Z</time></trkpt><trkpt lat="44.1835486" lon="12.115308"><ele>27.428571428571427</ele><time>2026-04-26T19:07:10.301Z</time></trkpt><trkpt lat="44.1834905" lon="12.1152661"><ele>27.0</ele><time>2026-04-26T19:07:16.354Z</time></trkpt><trkpt lat="44.1834297" lon="12.1152253"><ele>27.0</ele><time>2026-04-26T19:07:23.366Z</time></trkpt><trkpt lat="44.1834134" lon="12.1151341"><ele>27.0</ele><time>2026-04-26T19:07:34.359Z</time></trkpt><trkpt lat="44.1834305" lon="12.1150254"><ele>27.0</ele><time>2026-04-26T19:07:40.337Z</time></trkpt><trkpt lat="44.1834752" lon="12.1149336"><ele>27.0</ele><time>2026-04-26T19:07:44.397Z</time></trkpt><trkpt lat="44.1834917" lon="12.1148405"><ele>27.0</ele><time>2026-04-26T19:07:48.361Z</time></trkpt><trkpt lat="44.1835124" lon="12.1147417"><ele>27.0</ele><time>2026-04-26T19:07:53.256Z</time></trkpt><trkpt lat="44.1835408" lon="12.1146504"><ele>27.0</ele><time>2026-04-26T19:07:58.318Z</time></trkpt><trkpt lat="44.1835589" lon="12.1145638"><ele>27.0</ele><time>2026-04-26T19:08:03.398Z</time></trkpt><trkpt lat="44.1835638" lon="12.1144622"><ele>27.0</ele><time>2026-04-26T19:08:09.393Z</time></trkpt><trkpt lat="44.183622" lon="12.1144051"><ele>27.0</ele><time>2026-04-26T19:08:17.42Z</time></trkpt><trkpt lat="44.183649" lon="12.1143131"><ele>27.0</ele><time>2026-04-26T19:08:28.392Z</time></trkpt><trkpt lat="44.1836759" lon="12.1142309"><ele>27.0</ele><time>2026-04-26T19:08:35.403Z</time></trkpt><trkpt lat="44.1837359" lon="12.1141857"><ele>27.0</ele><time>2026-04-26T19:08:40.381Z</time></trkpt><trkpt lat="44.1838101" lon="12.1142044"><ele>27.0</ele><time>2026-04-26T19:08:48.311Z</time></trkpt><trkpt lat="44.1838479" lon="12.1142868"><ele>27.0</ele><time>2026-04-26T19:08:53.388Z</time></trkpt><trkpt lat="44.1838513" lon="12.1143765"><ele>27.0</ele><time>2026-04-26T19:09:00.312Z</time></trkpt><trkpt lat="44.1838221" lon="12.1144704"><ele>27.0</ele><time>2026-04-26T19:09:06.392Z</time></trkpt><trkpt lat="44.1838035" lon="12.1145709"><ele>27.0</ele><time>2026-04-26T19:09:11.372Z</time></trkpt><trkpt lat="44.1838391" lon="12.1146507"><ele>27.0</ele><time>2026-04-26T19:09:20.313Z</time></trkpt><trkpt lat="44.1838964" lon="12.1146975"><ele>27.0</ele><time>2026-04-26T19:09:26.34Z</time></trkpt><trkpt lat="44.1839539" lon="12.1147467"><ele>27.0</ele><time>2026-04-26T19:09:31.297Z</time></trkpt><trkpt lat="44.1840153" lon="12.1147903"><ele>27.285714285714285</ele><time>2026-04-26T19:09:36.366Z</time></trkpt><trkpt lat="44.1840738" lon="12.1148363"><ele>27.57142857142857</ele><time>2026-04-26T19:09:41.345Z</time></trkpt><trkpt lat="44.1841298" lon="12.1148961"><ele>27.85714285714286</ele><time>2026-04-26T19:09:47.322Z</time></trkpt><trkpt lat="44.1841971" lon="12.1149426"><ele>28.142857142857146</ele><time>2026-04-26T19:09:54.349Z</time></trkpt><trkpt lat="44.1842628" lon="12.1149863"><ele>28.42857142857143</ele><time>2026-04-26T19:10:01.36Z</time></trkpt><trkpt lat="44.184325" lon="12.1150237"><ele>28.71428571428572</ele><time>2026-04-26T19:10:06.338Z</time></trkpt><trkpt lat="44.184389" lon="12.1150659"><ele>29.000000000000004</ele><time>2026-04-26T19:10:11.318Z</time></trkpt><trkpt lat="44.184459" lon="12.1151095"><ele>29.000000000000004</ele><time>2026-04-26T19:10:16.359Z</time></trkpt><trkpt lat="44.1845274" lon="12.1151433"><ele>29.0</ele><time>2026-04-26T19:10:23.311Z</time></trkpt><trkpt lat="44.1846028" lon="12.1151454"><ele>29.000000000000004</ele><time>2026-04-26T19:10:29.312Z</time></trkpt><trkpt lat="44.1846655" lon="12.1151797"><ele>29.000000000000004</ele><time>2026-04-26T19:10:34.382Z</time></trkpt><trkpt lat="44.1847047" lon="12.1151031"><ele>29.0</ele><time>2026-04-26T19:10:40.379Z</time></trkpt><trkpt lat="44.1847578" lon="12.1150532"><ele>29.000000000000004</ele><time>2026-04-26T19:10:46.37Z</time></trkpt><trkpt lat="44.1848151" lon="12.1150167"><ele>29.000000000000004</ele><time>2026-04-26T19:10:53.382Z</time></trkpt><trkpt lat="44.1848903" lon="12.1150143"><ele>29.0</ele><time>2026-04-26T19:10:59.376Z</time></trkpt><trkpt lat="44.1849405" lon="12.1149547"><ele>29.0</ele><time>2026-04-26T19:11:06.376Z</time></trkpt></trkseg></trk></gpx>